sensor_id;sensor_type;location;lat;lon;timestamp;pressure;altitude;pressure_sealevel;temperature;humidity
2685;BME280;1352;48.446;9.156;2022-09-09T00:00:19;95014.63;;;18.36;62.96
2685;BME280;1352;48.446;9.156;2022-09-09T00:02:55;95013.25;;;18.40;62.60
2685;BME280;1352;48.446;9.156;2022-09-09T00:05:31;95007.63;;;18.49;62.67
2685;BME280;1352;48.446;9.156;2022-09-09T00:08:02;95007.63;;;18.49;62.61
2685;BME280;1352;48.446;9.156;2022-09-09T00:10:33;94994.66;;;18.54;62.71
2685;BME280;1352;48.446;9.156;2022-09-09T00:13:13;94998.19;;;18.62;62.72
2685;BME280;1352;48.446;9.156;2022-09-09T00:15:49;94992.47;;;18.58;62.99
2685;BME280;1352;48.446;9.156;2022-09-09T00:18:24;94986.72;;;18.54;63.78
2685;BME280;1352;48.446;9.156;2022-09-09T00:20:59;94988.34;;;18.55;63.31
2685;BME280;1352;48.446;9.156;2022-09-09T00:23:32;94996.16;;;18.64;63.23
2685;BME280;1352;48.446;9.156;2022-09-09T00:26:04;94988.69;;;18.67;63.15
2685;BME280;1352;48.446;9.156;2022-09-09T00:28:39;94989.72;;;18.73;62.66
2685;BME280;1352;48.446;9.156;2022-09-09T00:31:12;94986.22;;;18.66;63.13
2685;BME280;1352;48.446;9.156;2022-09-09T00:33:40;94987.19;;;18.58;63.32
2685;BME280;1352;48.446;9.156;2022-09-09T00:36:13;94999.81;;;18.63;63.12
2685;BME280;1352;48.446;9.156;2022-09-09T00:38:44;94993.19;;;18.52;64.08
2685;BME280;1352;48.446;9.156;2022-09-09T00:41:18;94999.59;;;18.57;63.87
2685;BME280;1352;48.446;9.156;2022-09-09T00:43:55;94987.59;;;18.62;63.75
2685;BME280;1352;48.446;9.156;2022-09-09T00:49:15;94992.16;;;18.46;64.83
2685;BME280;1352;48.446;9.156;2022-09-09T00:51:54;94991.38;;;18.52;64.86
2685;BME280;1352;48.446;9.156;2022-09-09T00:54:30;94987.69;;;18.47;65.44
2685;BME280;1352;48.446;9.156;2022-09-09T00:57:11;94984.63;;;18.50;65.68
2685;BME280;1352;48.446;9.156;2022-09-09T00:59:47;94983.44;;;18.52;65.39
2685;BME280;1352;48.446;9.156;2022-09-09T01:02:26;94986.38;;;18.57;65.04
2685;BME280;1352;48.446;9.156;2022-09-09T01:04:59;94987.09;;;18.51;65.12
2685;BME280;1352;48.446;9.156;2022-09-09T01:07:30;94991.78;;;18.49;65.42
2685;BME280;1352;48.446;9.156;2022-09-09T01:09:58;94991.78;;;18.49;65.70
2685;BME280;1352;48.446;9.156;2022-09-09T01:12:34;94989.88;;;18.43;65.70
2685;BME280;1352;48.446;9.156;2022-09-09T01:15:10;94992.38;;;18.51;65.73
2685;BME280;1352;48.446;9.156;2022-09-09T01:17:48;94982.72;;;18.58;65.62
2685;BME280;1352;48.446;9.156;2022-09-09T01:20:21;94992.25;;;18.59;65.82
2685;BME280;1352;48.446;9.156;2022-09-09T01:23:05;94983.31;;;18.61;66.08
2685;BME280;1352;48.446;9.156;2022-09-09T01:26:17;94987.25;;;18.43;66.40
2685;BME280;1352;48.446;9.156;2022-09-09T01:28:47;94986.50;;;18.49;66.26
2685;BME280;1352;48.446;9.156;2022-09-09T01:31:17;94993.31;;;18.37;67.18
2685;BME280;1352;48.446;9.156;2022-09-09T01:33:45;94987.34;;;18.29;67.61
2685;BME280;1352;48.446;9.156;2022-09-09T01:36:20;94986.91;;;18.25;67.73
2685;BME280;1352;48.446;9.156;2022-09-09T01:38:50;94991.41;;;18.31;68.25
2685;BME280;1352;48.446;9.156;2022-09-09T01:41:18;94985.94;;;18.33;68.02
2685;BME280;1352;48.446;9.156;2022-09-09T01:43:45;94988.25;;;18.42;67.73
2685;BME280;1352;48.446;9.156;2022-09-09T01:46:13;94998.59;;;18.37;67.64
2685;BME280;1352;48.446;9.156;2022-09-09T01:48:41;94988.75;;;18.31;67.91
2685;BME280;1352;48.446;9.156;2022-09-09T01:51:08;94991.22;;;18.33;68.31
2685;BME280;1352;48.446;9.156;2022-09-09T01:53:36;94984.56;;;18.37;68.11
2685;BME280;1352;48.446;9.156;2022-09-09T01:56:11;94988.22;;;18.36;68.07
2685;BME280;1352;48.446;9.156;2022-09-09T01:58:59;94998.91;;;18.28;68.42
2685;BME280;1352;48.446;9.156;2022-09-09T02:01:39;94993.41;;;18.01;71.16
2685;BME280;1352;48.446;9.156;2022-09-09T02:04:23;94996.56;;;17.54;74.18
2685;BME280;1352;48.446;9.156;2022-09-09T02:06:56;94994.06;;;17.31;76.35
2685;BME280;1352;48.446;9.156;2022-09-09T02:09:24;94997.84;;;17.43;76.90
2685;BME280;1352;48.446;9.156;2022-09-09T02:11:57;94995.22;;;17.43;76.27
2685;BME280;1352;48.446;9.156;2022-09-09T02:14:30;95002.91;;;17.60;76.23
2685;BME280;1352;48.446;9.156;2022-09-09T02:17:03;95008.44;;;17.65;75.84
2685;BME280;1352;48.446;9.156;2022-09-09T02:19:37;95012.94;;;17.64;76.11
2685;BME280;1352;48.446;9.156;2022-09-09T02:22:05;95003.63;;;17.68;76.58
2685;BME280;1352;48.446;9.156;2022-09-09T02:24:34;95011.09;;;17.65;76.90
2685;BME280;1352;48.446;9.156;2022-09-09T02:27:04;95017.19;;;17.65;77.03
2685;BME280;1352;48.446;9.156;2022-09-09T02:29:37;95020.09;;;17.70;76.64
2685;BME280;1352;48.446;9.156;2022-09-09T02:32:07;95023.19;;;17.74;76.91
2685;BME280;1352;48.446;9.156;2022-09-09T02:34:39;95022.91;;;17.69;77.29
2685;BME280;1352;48.446;9.156;2022-09-09T02:37:09;95020.28;;;17.69;77.24
2685;BME280;1352;48.446;9.156;2022-09-09T02:39:37;95028.75;;;17.64;76.55
2685;BME280;1352;48.446;9.156;2022-09-09T02:42:05;95024.72;;;17.68;77.45
2685;BME280;1352;48.446;9.156;2022-09-09T02:44:32;95028.81;;;17.56;77.79
2685;BME280;1352;48.446;9.156;2022-09-09T02:47:25;95029.75;;;17.48;77.53
2685;BME280;1352;48.446;9.156;2022-09-09T02:50:08;95029.63;;;17.57;77.38
2685;BME280;1352;48.446;9.156;2022-09-09T02:52:46;95021.28;;;17.53;78.96
2685;BME280;1352;48.446;9.156;2022-09-09T02:55:20;95019.31;;;17.40;79.46
2685;BME280;1352;48.446;9.156;2022-09-09T02:57:51;95016.50;;;17.27;81.51
2685;BME280;1352;48.446;9.156;2022-09-09T03:00:24;95024.63;;;17.11;82.93
2685;BME280;1352;48.446;9.156;2022-09-09T03:02:53;95020.72;;;16.92;84.79
2685;BME280;1352;48.446;9.156;2022-09-09T03:05:21;95012.09;;;16.98;85.60
2685;BME280;1352;48.446;9.156;2022-09-09T03:07:49;95017.56;;;16.97;87.17
2685;BME280;1352;48.446;9.156;2022-09-09T03:10:16;95016.09;;;16.80;85.89
2685;BME280;1352;48.446;9.156;2022-09-09T03:12:43;95024.72;;;16.88;85.73
2685;BME280;1352;48.446;9.156;2022-09-09T03:15:10;95018.72;;;16.94;86.36
2685;BME280;1352;48.446;9.156;2022-09-09T03:17:37;95028.09;;;16.97;87.76
2685;BME280;1352;48.446;9.156;2022-09-09T03:20:07;95028.38;;;16.87;85.33
2685;BME280;1352;48.446;9.156;2022-09-09T03:22:34;95038.81;;;16.95;87.23
2685;BME280;1352;48.446;9.156;2022-09-09T03:25:01;95040.34;;;16.90;88.99
2685;BME280;1352;48.446;9.156;2022-09-09T03:27:29;95041.09;;;16.98;90.05
2685;BME280;1352;48.446;9.156;2022-09-09T03:29:56;95039.34;;;16.76;92.99
2685;BME280;1352;48.446;9.156;2022-09-09T03:32:23;95038.88;;;16.72;95.20
2685;BME280;1352;48.446;9.156;2022-09-09T03:34:51;95038.31;;;16.62;95.86
2685;BME280;1352;48.446;9.156;2022-09-09T03:37:20;95045.28;;;16.55;98.03
2685;BME280;1352;48.446;9.156;2022-09-09T03:39:48;95040.09;;;16.47;100.00
2685;BME280;1352;48.446;9.156;2022-09-09T03:42:15;95037.34;;;16.41;100.00
2685;BME280;1352;48.446;9.156;2022-09-09T03:44:44;95028.50;;;16.33;100.00
2685;BME280;1352;48.446;9.156;2022-09-09T03:47:16;95028.00;;;16.15;100.00
2685;BME280;1352;48.446;9.156;2022-09-09T03:49:43;95023.94;;;16.13;100.00
2685;BME280;1352;48.446;9.156;2022-09-09T03:52:10;95019.34;;;16.07;100.00
2685;BME280;1352;48.446;9.156;2022-09-09T03:54:38;95018.59;;;16.21;100.00
2685;BME280;1352;48.446;9.156;2022-09-09T03:57:08;95010.97;;;16.26;100.00
2685;BME280;1352;48.446;9.156;2022-09-09T03:59:35;95003.91;;;16.26;100.00
2685;BME280;1352;48.446;9.156;2022-09-09T04:02:03;95004.19;;;16.31;100.00
2685;BME280;1352;48.446;9.156;2022-09-09T04:04:31;95003.63;;;16.21;100.00
2685;BME280;1352;48.446;9.156;2022-09-09T04:06:58;95004.13;;;16.17;100.00
2685;BME280;1352;48.446;9.156;2022-09-09T04:09:25;95006.66;;;16.10;100.00
2685;BME280;1352;48.446;9.156;2022-09-09T04:11:53;95018.72;;;16.05;100.00
2685;BME280;1352;48.446;9.156;2022-09-09T04:14:20;95021.78;;;15.93;100.00
2685;BME280;1352;48.446;9.156;2022-09-09T04:16:48;95017.78;;;15.97;100.00
2685;BME280;1352;48.446;9.156;2022-09-09T04:19:15;95025.41;;;15.92;100.00
2685;BME280;1352;48.446;9.156;2022-09-09T04:21:42;95015.94;;;15.83;100.00
2685;BME280;1352;48.446;9.156;2022-09-09T04:24:09;95016.09;;;15.82;100.00
2685;BME280;1352;48.446;9.156;2022-09-09T04:26:36;95019.00;;;15.87;100.00
2685;BME280;1352;48.446;9.156;2022-09-09T04:29:05;95015.69;;;15.93;100.00
2685;BME280;1352;48.446;9.156;2022-09-09T04:31:33;95016.22;;;15.88;100.00
2685;BME280;1352;48.446;9.156;2022-09-09T04:34:00;95011.94;;;15.87;100.00
2685;BME280;1352;48.446;9.156;2022-09-09T04:36:31;95017.13;;;15.95;100.00
2685;BME280;1352;48.446;9.156;2022-09-09T04:38:58;95011.53;;;15.98;100.00
2685;BME280;1352;48.446;9.156;2022-09-09T04:41:27;95013.28;;;16.06;100.00
2685;BME280;1352;48.446;9.156;2022-09-09T04:43:55;95005.91;;;16.02;100.00
2685;BME280;1352;48.446;9.156;2022-09-09T04:46:23;95015.38;;;16.11;100.00
2685;BME280;1352;48.446;9.156;2022-09-09T04:48:50;95011.97;;;16.25;100.00
2685;BME280;1352;48.446;9.156;2022-09-09T04:51:18;95016.06;;;16.27;100.00
2685;BME280;1352;48.446;9.156;2022-09-09T04:53:45;95012.38;;;16.36;100.00
2685;BME280;1352;48.446;9.156;2022-09-09T04:56:15;95014.66;;;16.40;99.52
2685;BME280;1352;48.446;9.156;2022-09-09T04:58:43;95009.38;;;16.40;98.71
2685;BME280;1352;48.446;9.156;2022-09-09T05:01:12;95004.75;;;16.42;99.41
2685;BME280;1352;48.446;9.156;2022-09-09T05:03:42;95008.00;;;16.44;97.95
2685;BME280;1352;48.446;9.156;2022-09-09T05:06:13;95005.75;;;16.55;97.69
2685;BME280;1352;48.446;9.156;2022-09-09T05:08:41;95016.25;;;16.63;97.10
2685;BME280;1352;48.446;9.156;2022-09-09T05:11:19;95016.78;;;16.59;97.79
2685;BME280;1352;48.446;9.156;2022-09-09T05:13:47;95022.47;;;16.48;99.82
2685;BME280;1352;48.446;9.156;2022-09-09T05:16:16;95018.88;;;16.63;99.61
2685;BME280;1352;48.446;9.156;2022-09-09T05:18:45;95022.50;;;16.62;100.00
2685;BME280;1352;48.446;9.156;2022-09-09T05:21:14;95033.19;;;16.61;100.00
2685;BME280;1352;48.446;9.156;2022-09-09T05:23:41;95021.22;;;16.58;100.00
2685;BME280;1352;48.446;9.156;2022-09-09T05:26:12;95017.72;;;16.66;99.91
2685;BME280;1352;48.446;9.156;2022-09-09T05:28:39;95031.09;;;16.79;99.48
2685;BME280;1352;48.446;9.156;2022-09-09T05:31:08;95027.53;;;16.87;100.00
2685;BME280;1352;48.446;9.156;2022-09-09T05:33:37;95034.63;;;16.86;100.00
2685;BME280;1352;48.446;9.156;2022-09-09T05:36:09;95032.34;;;16.68;100.00
2685;BME280;1352;48.446;9.156;2022-09-09T05:38:39;95045.09;;;16.57;100.00
2685;BME280;1352;48.446;9.156;2022-09-09T05:41:07;95052.59;;;16.68;100.00
2685;BME280;1352;48.446;9.156;2022-09-09T05:43:35;95046.00;;;16.87;100.00
2685;BME280;1352;48.446;9.156;2022-09-09T05:46:04;95032.44;;;16.90;100.00
2685;BME280;1352;48.446;9.156;2022-09-09T05:48:32;95044.06;;;16.81;100.00
2685;BME280;1352;48.446;9.156;2022-09-09T05:51:00;95051.59;;;16.84;100.00
2685;BME280;1352;48.446;9.156;2022-09-09T05:53:30;95046.91;;;16.94;100.00
2685;BME280;1352;48.446;9.156;2022-09-09T05:56:01;95052.69;;;16.89;100.00
2685;BME280;1352;48.446;9.156;2022-09-09T05:58:29;95047.06;;;16.92;100.00
2685;BME280;1352;48.446;9.156;2022-09-09T06:03:30;95041.59;;;17.08;100.00
2685;BME280;1352;48.446;9.156;2022-09-09T06:05:58;95043.00;;;17.04;97.94
2685;BME280;1352;48.446;9.156;2022-09-09T06:08:26;95042.00;;;17.05;96.96
2685;BME280;1352;48.446;9.156;2022-09-09T06:11:01;95046.44;;;17.05;97.56
2685;BME280;1352;48.446;9.156;2022-09-09T06:13:29;95046.69;;;17.10;98.28
2685;BME280;1352;48.446;9.156;2022-09-09T06:15:57;95038.53;;;17.05;99.51
2685;BME280;1352;48.446;9.156;2022-09-09T06:18:25;95037.78;;;17.11;98.82
2685;BME280;1352;48.446;9.156;2022-09-09T06:20:56;95046.91;;;16.94;99.43
2685;BME280;1352;48.446;9.156;2022-09-09T06:23:24;95053.53;;;17.04;99.92
2685;BME280;1352;48.446;9.156;2022-09-09T06:25:51;95043.06;;;17.11;100.00
2685;BME280;1352;48.446;9.156;2022-09-09T06:28:20;95045.53;;;17.13;99.53
2685;BME280;1352;48.446;9.156;2022-09-09T06:30:47;95042.63;;;17.22;99.32
2685;BME280;1352;48.446;9.156;2022-09-09T06:33:14;95040.41;;;17.40;97.41
2685;BME280;1352;48.446;9.156;2022-09-09T06:35:41;95040.59;;;17.39;99.72
2685;BME280;1352;48.446;9.156;2022-09-09T06:38:08;95046.50;;;17.41;97.38
2685;BME280;1352;48.446;9.156;2022-09-09T06:40:35;95050.22;;;17.46;97.48
2685;BME280;1352;48.446;9.156;2022-09-09T06:43:02;95042.22;;;17.55;98.59
2685;BME280;1352;48.446;9.156;2022-09-09T06:45:30;95051.47;;;17.65;97.42
2685;BME280;1352;48.446;9.156;2022-09-09T06:47:57;95046.66;;;17.69;97.26
2685;BME280;1352;48.446;9.156;2022-09-09T06:50:24;95045.47;;;17.57;99.21
2685;BME280;1352;48.446;9.156;2022-09-09T06:52:51;95051.47;;;17.65;100.00
2685;BME280;1352;48.446;9.156;2022-09-09T06:55:19;95048.03;;;17.65;99.00
2685;BME280;1352;48.446;9.156;2022-09-09T06:57:46;95049.75;;;17.72;99.47
2685;BME280;1352;48.446;9.156;2022-09-09T07:00:14;95054.28;;;17.78;99.91
2685;BME280;1352;48.446;9.156;2022-09-09T07:02:42;95057.44;;;17.89;98.22
2685;BME280;1352;48.446;9.156;2022-09-09T07:05:10;95059.06;;;17.90;98.50
2685;BME280;1352;48.446;9.156;2022-09-09T07:07:37;95056.94;;;18.00;98.86
2685;BME280;1352;48.446;9.156;2022-09-09T07:10:05;95056.97;;;18.21;95.79
2685;BME280;1352;48.446;9.156;2022-09-09T07:12:33;95055.88;;;18.37;95.77
2685;BME280;1352;48.446;9.156;2022-09-09T07:15:00;95052.78;;;18.33;93.09
2685;BME280;1352;48.446;9.156;2022-09-09T07:17:27;95049.91;;;18.49;94.81
2685;BME280;1352;48.446;9.156;2022-09-09T07:19:56;95058.31;;;18.59;94.81
2685;BME280;1352;48.446;9.156;2022-09-09T07:22:23;95057.25;;;18.75;90.40
2685;BME280;1352;48.446;9.156;2022-09-09T07:24:50;95054.63;;;18.82;93.39
2685;BME280;1352;48.446;9.156;2022-09-09T07:27:17;95050.34;;;18.81;90.35
2685;BME280;1352;48.446;9.156;2022-09-09T07:29:44;95053.47;;;18.91;92.37
2685;BME280;1352;48.446;9.156;2022-09-09T07:32:12;95061.25;;;18.99;92.52
2685;BME280;1352;48.446;9.156;2022-09-09T07:34:39;95065.69;;;18.92;91.88
2685;BME280;1352;48.446;9.156;2022-09-09T07:37:07;95072.84;;;18.98;92.43
2685;BME280;1352;48.446;9.156;2022-09-09T07:39:37;95072.63;;;18.93;90.17
2685;BME280;1352;48.446;9.156;2022-09-09T07:42:05;95083.22;;;19.00;91.88
2685;BME280;1352;48.446;9.156;2022-09-09T07:44:32;95074.47;;;18.99;90.57
2685;BME280;1352;48.446;9.156;2022-09-09T07:47:00;95084.84;;;18.94;90.14
2685;BME280;1352;48.446;9.156;2022-09-09T07:49:27;95081.72;;;18.84;89.69
2685;BME280;1352;48.446;9.156;2022-09-09T07:51:54;95087.38;;;18.81;88.42
2685;BME280;1352;48.446;9.156;2022-09-09T07:54:23;95087.38;;;18.81;88.66
2685;BME280;1352;48.446;9.156;2022-09-09T07:56:52;95088.47;;;18.93;89.80
2685;BME280;1352;48.446;9.156;2022-09-09T07:59:19;95082.38;;;18.92;90.85
2685;BME280;1352;48.446;9.156;2022-09-09T08:01:48;95091.16;;;19.00;91.38
2685;BME280;1352;48.446;9.156;2022-09-09T08:04:20;95088.84;;;18.90;87.69
2685;BME280;1352;48.446;9.156;2022-09-09T08:06:49;95088.78;;;18.77;89.25
2685;BME280;1352;48.446;9.156;2022-09-09T08:09:17;95091.59;;;18.75;86.61
2685;BME280;1352;48.446;9.156;2022-09-09T08:11:46;95100.22;;;18.84;87.85
2685;BME280;1352;48.446;9.156;2022-09-09T08:14:13;95095.81;;;18.98;88.62
2685;BME280;1352;48.446;9.156;2022-09-09T08:16:43;95096.94;;;19.10;88.42
2685;BME280;1352;48.446;9.156;2022-09-09T08:19:10;95093.44;;;19.03;84.62
2685;BME280;1352;48.446;9.156;2022-09-09T08:21:39;95094.63;;;19.00;86.54
2685;BME280;1352;48.446;9.156;2022-09-09T08:24:07;95106.50;;;19.11;87.49
2685;BME280;1352;48.446;9.156;2022-09-09T08:26:37;95105.03;;;19.02;85.75
2685;BME280;1352;48.446;9.156;2022-09-09T08:29:07;95107.28;;;19.05;86.37
2685;BME280;1352;48.446;9.156;2022-09-09T08:31:37;95111.28;;;18.94;87.16
2685;BME280;1352;48.446;9.156;2022-09-09T08:34:05;95115.44;;;18.82;86.73
2685;BME280;1352;48.446;9.156;2022-09-09T08:36:35;95106.28;;;18.78;85.69
2685;BME280;1352;48.446;9.156;2022-09-09T08:39:03;95118.22;;;18.74;88.82
2685;BME280;1352;48.446;9.156;2022-09-09T08:41:40;95113.91;;;18.66;87.05
2685;BME280;1352;48.446;9.156;2022-09-09T08:44:16;95108.84;;;18.71;86.52
2685;BME280;1352;48.446;9.156;2022-09-09T08:46:57;95116.28;;;18.61;87.88
2685;BME280;1352;48.446;9.156;2022-09-09T08:49:51;95106.19;;;18.50;86.09
2685;BME280;1352;48.446;9.156;2022-09-09T08:52:26;95105.72;;;18.40;85.02
2685;BME280;1352;48.446;9.156;2022-09-09T08:54:57;95106.94;;;18.58;86.18
2685;BME280;1352;48.446;9.156;2022-09-09T08:57:26;95103.31;;;18.66;86.13
2685;BME280;1352;48.446;9.156;2022-09-09T08:59:58;95100.09;;;18.71;86.42
2685;BME280;1352;48.446;9.156;2022-09-09T09:02:29;95103.19;;;19.02;86.45
2685;BME280;1352;48.446;9.156;2022-09-09T09:05:11;95110.25;;;19.23;81.77
2685;BME280;1352;48.446;9.156;2022-09-09T09:07:52;95103.50;;;19.20;80.52
2685;BME280;1352;48.446;9.156;2022-09-09T09:10:33;95101.69;;;19.49;81.15
2685;BME280;1352;48.446;9.156;2022-09-09T09:13:03;95096.47;;;19.68;79.97
2685;BME280;1352;48.446;9.156;2022-09-09T09:15:37;95088.19;;;19.85;83.10
2685;BME280;1352;48.446;9.156;2022-09-09T09:18:05;95084.59;;;19.99;81.17
2685;BME280;1352;48.446;9.156;2022-09-09T09:20:42;95084.97;;;19.89;74.34
2685;BME280;1352;48.446;9.156;2022-09-09T09:23:22;95087.63;;;20.02;75.74
2685;BME280;1352;48.446;9.156;2022-09-09T09:25:52;95089.31;;;20.30;75.93
2685;BME280;1352;48.446;9.156;2022-09-09T09:28:24;95093.44;;;20.39;74.55
2685;BME280;1352;48.446;9.156;2022-09-09T09:30:55;95090.56;;;20.34;72.50
2685;BME280;1352;48.446;9.156;2022-09-09T09:33:27;95087.94;;;20.40;72.28
2685;BME280;1352;48.446;9.156;2022-09-09T09:35:58;95084.91;;;20.50;69.92
2685;BME280;1352;48.446;9.156;2022-09-09T09:38:26;95085.53;;;20.78;67.92
2685;BME280;1352;48.446;9.156;2022-09-09T09:40:55;95085.94;;;20.62;66.59
2685;BME280;1352;48.446;9.156;2022-09-09T09:43:25;95084.31;;;20.61;66.50
2685;BME280;1352;48.446;9.156;2022-09-09T09:45:55;95087.97;;;20.54;66.02
2685;BME280;1352;48.446;9.156;2022-09-09T09:48:23;95076.97;;;20.63;72.73
2685;BME280;1352;48.446;9.156;2022-09-09T09:50:52;95081.06;;;20.66;70.68
2685;BME280;1352;48.446;9.156;2022-09-09T09:53:23;95077.97;;;20.69;66.87
2685;BME280;1352;48.446;9.156;2022-09-09T09:55:55;95077.16;;;20.88;68.12
2685;BME280;1352;48.446;9.156;2022-09-09T09:58:23;95069.19;;;21.01;67.27
2685;BME280;1352;48.446;9.156;2022-09-09T10:00:54;95077.34;;;21.13;68.76
2685;BME280;1352;48.446;9.156;2022-09-09T10:03:27;95075.09;;;21.10;66.72
2685;BME280;1352;48.446;9.156;2022-09-09T10:05:55;95075.94;;;21.04;65.36
2685;BME280;1352;48.446;9.156;2022-09-09T10:08:24;95075.75;;;20.92;65.41
2685;BME280;1352;48.446;9.156;2022-09-09T10:11:00;95076.53;;;20.99;67.33
2685;BME280;1352;48.446;9.156;2022-09-09T10:13:37;95081.63;;;21.07;65.51
2685;BME280;1352;48.446;9.156;2022-09-09T10:16:21;95073.25;;;21.17;65.47
2685;BME280;1352;48.446;9.156;2022-09-09T10:18:59;95074.09;;;21.31;68.29
2685;BME280;1352;48.446;9.156;2022-09-09T10:21:48;95065.69;;;21.34;65.85
2685;BME280;1352;48.446;9.156;2022-09-09T10:24:44;95076.31;;;21.34;65.71
2685;BME280;1352;48.446;9.156;2022-09-09T10:27:20;95063.28;;;21.32;66.97
2685;BME280;1352;48.446;9.156;2022-09-09T10:30:04;95055.31;;;21.32;62.08
2685;BME280;1352;48.446;9.156;2022-09-09T10:32:41;95057.72;;;21.34;63.28
2685;BME280;1352;48.446;9.156;2022-09-09T10:35:27;95060.59;;;21.39;64.70
2685;BME280;1352;48.446;9.156;2022-09-09T10:38:15;95062.59;;;21.43;58.39
2685;BME280;1352;48.446;9.156;2022-09-09T10:41:04;95063.66;;;21.29;56.84
2685;BME280;1352;48.446;9.156;2022-09-09T10:43:47;95057.56;;;21.22;55.30
2685;BME280;1352;48.446;9.156;2022-09-09T10:46:22;95061.59;;;21.51;56.85
2685;BME280;1352;48.446;9.156;2022-09-09T10:49:08;95065.63;;;21.53;58.16
2685;BME280;1352;48.446;9.156;2022-09-09T10:51:48;95068.66;;;21.64;57.91
2685;BME280;1352;48.446;9.156;2022-09-09T10:54:32;95055.25;;;21.45;57.56
2685;BME280;1352;48.446;9.156;2022-09-09T10:57:05;95052.22;;;21.35;58.21
2685;BME280;1352;48.446;9.156;2022-09-09T10:59:38;95051.53;;;21.53;59.12
2685;BME280;1352;48.446;9.156;2022-09-09T11:02:14;95048.47;;;21.56;56.04
2685;BME280;1352;48.446;9.156;2022-09-09T11:04:49;95053.75;;;21.63;58.13
2685;BME280;1352;48.446;9.156;2022-09-09T11:07:26;95038.44;;;21.65;53.03
2685;BME280;1352;48.446;9.156;2022-09-09T11:09:59;95045.78;;;21.63;54.17
2685;BME280;1352;48.446;9.156;2022-09-09T11:12:29;95043.97;;;21.57;54.89
2685;BME280;1352;48.446;9.156;2022-09-09T11:15:03;95048.66;;;21.61;56.66
2685;BME280;1352;48.446;9.156;2022-09-09T11:17:36;95037.66;;;21.58;56.24
2685;BME280;1352;48.446;9.156;2022-09-09T11:20:11;95050.84;;;21.71;61.41
2685;BME280;1352;48.446;9.156;2022-09-09T11:22:44;95042.03;;;21.83;58.05
2685;BME280;1352;48.446;9.156;2022-09-09T11:25:16;95046.66;;;21.95;55.63
2685;BME280;1352;48.446;9.156;2022-09-09T11:27:54;95056.38;;;21.76;57.22
2685;BME280;1352;48.446;9.156;2022-09-09T11:30:26;95055.00;;;21.60;55.73
2685;BME280;1352;48.446;9.156;2022-09-09T11:33:13;95080.44;;;20.37;61.89
2685;BME280;1352;48.446;9.156;2022-09-09T11:36:01;95089.81;;;19.79;69.73
2685;BME280;1352;48.446;9.156;2022-09-09T11:38:40;95083.66;;;19.38;70.12
2685;BME280;1352;48.446;9.156;2022-09-09T11:41:13;95078.28;;;18.90;73.81
2685;BME280;1352;48.446;9.156;2022-09-09T11:43:43;95076.78;;;18.81;76.64
2685;BME280;1352;48.446;9.156;2022-09-09T11:46:12;95082.56;;;18.63;72.57
2685;BME280;1352;48.446;9.156;2022-09-09T11:48:42;95076.66;;;18.89;76.20
2685;BME280;1352;48.446;9.156;2022-09-09T11:51:26;95083.72;;;19.10;71.96
2685;BME280;1352;48.446;9.156;2022-09-09T11:53:56;95083.81;;;19.23;69.31
2685;BME280;1352;48.446;9.156;2022-09-09T11:56:26;95082.34;;;19.20;70.91
2685;BME280;1352;48.446;9.156;2022-09-09T11:58:57;95090.16;;;19.35;67.46
2685;BME280;1352;48.446;9.156;2022-09-09T12:01:34;95088.56;;;19.34;67.90
2685;BME280;1352;48.446;9.156;2022-09-09T12:06:58;95075.13;;;19.77;67.29
2685;BME280;1352;48.446;9.156;2022-09-09T12:09:43;95076.88;;;19.63;62.76
2685;BME280;1352;48.446;9.156;2022-09-09T12:12:26;95066.81;;;19.86;61.78
2685;BME280;1352;48.446;9.156;2022-09-09T12:15:17;95077.28;;;20.08;61.50
2685;BME280;1352;48.446;9.156;2022-09-09T12:17:48;95075.06;;;20.18;60.15
2685;BME280;1352;48.446;9.156;2022-09-09T12:20:18;95069.56;;;20.32;58.58
2685;BME280;1352;48.446;9.156;2022-09-09T12:23:08;95064.88;;;20.28;57.54
2685;BME280;1352;48.446;9.156;2022-09-09T12:25:52;95070.78;;;20.17;59.48
2685;BME280;1352;48.446;9.156;2022-09-09T12:28:24;95066.00;;;19.92;59.47
2685;BME280;1352;48.446;9.156;2022-09-09T12:30:58;95062.97;;;19.95;56.54
2685;BME280;1352;48.446;9.156;2022-09-09T12:33:34;95066.44;;;19.96;64.67
2685;BME280;1352;48.446;9.156;2022-09-09T12:36:03;95064.41;;;19.98;59.49
2685;BME280;1352;48.446;9.156;2022-09-09T12:38:35;95064.41;;;19.98;63.53
2685;BME280;1352;48.446;9.156;2022-09-09T12:41:03;95060.19;;;20.30;65.71
2685;BME280;1352;48.446;9.156;2022-09-09T12:43:30;95056.34;;;20.39;60.94
2685;BME280;1352;48.446;9.156;2022-09-09T12:46:00;95058.81;;;20.47;63.03
2685;BME280;1352;48.446;9.156;2022-09-09T12:48:32;95060.03;;;20.51;66.61
2685;BME280;1352;48.446;9.156;2022-09-09T12:51:02;95062.28;;;20.48;65.00
2685;BME280;1352;48.446;9.156;2022-09-09T12:53:35;95074.31;;;20.37;65.20
2685;BME280;1352;48.446;9.156;2022-09-09T12:56:06;95064.91;;;20.34;65.59
2685;BME280;1352;48.446;9.156;2022-09-09T12:58:36;95064.53;;;20.37;67.66
2685;BME280;1352;48.446;9.156;2022-09-09T13:01:05;95065.72;;;20.35;62.94
2685;BME280;1352;48.446;9.156;2022-09-09T13:03:33;95059.44;;;20.56;63.38
2685;BME280;1352;48.446;9.156;2022-09-09T13:06:11;95050.44;;;20.70;62.83
2685;BME280;1352;48.446;9.156;2022-09-09T13:08:41;95046.38;;;20.54;63.23
2685;BME280;1352;48.446;9.156;2022-09-09T13:11:13;95048.59;;;20.51;57.97
2685;BME280;1352;48.446;9.156;2022-09-09T13:13:43;95043.72;;;20.67;58.70
2685;BME280;1352;48.446;9.156;2022-09-09T13:16:22;95046.78;;;20.71;58.31
2685;BME280;1352;48.446;9.156;2022-09-09T13:18:50;95042.47;;;20.76;56.30
2685;BME280;1352;48.446;9.156;2022-09-09T13:21:18;95037.19;;;20.90;59.26
2685;BME280;1352;48.446;9.156;2022-09-09T13:23:50;95035.75;;;20.94;56.02
2685;BME280;1352;48.446;9.156;2022-09-09T13:26:22;95031.63;;;21.04;57.25
2685;BME280;1352;48.446;9.156;2022-09-09T13:28:50;95037.94;;;21.16;58.74
2685;BME280;1352;48.446;9.156;2022-09-09T13:31:23;95035.13;;;21.18;56.12
2685;BME280;1352;48.446;9.156;2022-09-09T13:33:53;95026.28;;;21.37;59.37
2685;BME280;1352;48.446;9.156;2022-09-09T13:36:29;95026.25;;;21.50;56.35
2685;BME280;1352;48.446;9.156;2022-09-09T13:38:59;95019.47;;;21.54;54.04
2685;BME280;1352;48.446;9.156;2022-09-09T13:41:31;95020.13;;;21.50;54.48
2685;BME280;1352;48.446;9.156;2022-09-09T13:43:59;95025.63;;;21.48;54.92
2685;BME280;1352;48.446;9.156;2022-09-09T13:46:32;95027.97;;;21.12;53.54
2685;BME280;1352;48.446;9.156;2022-09-09T13:49:02;95020.63;;;21.01;54.16
2685;BME280;1352;48.446;9.156;2022-09-09T13:51:33;95028.59;;;20.88;56.92